Time;durP1;ratioP1;P1;durP2;ratioP2;P2;SDS_P1;SDS_P2;PMS_P1;PMS_P2;Temp;Humidity;BMP_temperature;BMP_pressure;BME280_temperature;BME280_humidity;BME280_pressure;Samples;Min_cycle;Max_cycle;Signal;HPM_P1;HPM_P2
2023/04/23 00:00:31;;;;;;;113.28;68.45;;;;;;;7.18;nan;100608.00;4975255;28;20092;-42
2023/04/23 00:02:57;;;;;;;112.47;68.45;;;;;;;6.83;nan;100542.50;4993099;28;20033;-42
2023/04/23 00:05:26;;;;;;;109.28;69.13;;;;;;;6.76;nan;100535.69;4975426;28;20035;-42
2023/04/23 00:07:53;;;;;;;111.65;69.13;;;;;;;7.11;nan;100590.72;4992836;28;20034;-42
2023/04/23 00:10:18;;;;;;;117.70;68.47;;;;;;;7.10;nan;100585.50;4975202;28;20444;-43
2023/04/23 00:12:44;;;;;;;110.88;67.88;;;;;;;7.13;nan;100577.59;4988551;28;20046;-41
2023/04/23 00:15:11;;;;;;;109.32;67.32;;;;;;;7.17;nan;100587.09;4971682;28;20042;-44
2023/04/23 00:17:36;;;;;;;117.90;69.78;;;;;;;6.87;nan;100520.63;4991358;28;20034;-44
2023/04/23 00:20:01;;;;;;;115.18;68.68;;;;;;;7.21;nan;100579.13;4978929;28;20441;-44
2023/04/23 00:22:27;;;;;;;117.03;69.53;;;;;;;7.24;nan;100584.31;4991452;28;20034;-41
2023/04/23 00:24:54;;;;;;;117.40;71.50;;;;;;;7.26;nan;100585.16;4990338;28;20063;-41
2023/04/23 00:27:20;;;;;;;110.97;68.50;;;;;;;7.29;nan;100574.63;4991407;28;20077;-40
2023/04/23 00:29:45;;;;;;;113.25;69.47;;;;;;;7.34;nan;100567.50;4992350;28;20117;-44
2023/04/23 00:32:11;;;;;;;117.85;70.30;;;;;;;7.40;nan;100566.50;4992022;28;20522;-43
2023/04/23 00:34:36;;;;;;;119.07;67.82;;;;;;;7.20;nan;100516.38;4992306;28;20470;-43
2023/04/23 00:37:05;;;;;;;118.43;70.13;;;;;;;7.50;nan;100556.66;4974098;28;20474;-41
2023/04/23 00:39:31;;;;;;;122.97;73.43;;;;;;;7.59;nan;100557.28;4992307;28;20038;-43
2023/04/23 00:41:56;;;;;;;124.63;72.40;;;;;;;7.52;nan;100539.16;4992168;28;20552;-41
2023/04/23 00:44:23;;;;;;;124.05;72.65;;;;;;;7.22;nan;100491.88;4992383;28;20053;-43
2023/04/23 00:46:49;;;;;;;118.90;69.72;;;;;;;7.29;nan;100503.06;4974495;28;20101;-42
2023/04/23 00:49:14;;;;;;;123.05;71.03;;;;;;;7.11;nan;100475.56;4974784;28;20034;-42
2023/04/23 00:51:40;;;;;;;121.97;71.28;;;;;;;7.39;nan;100535.97;4992093;28;20042;-44
2023/04/23 00:54:06;;;;;;;130.82;74.72;;;;;;;7.19;nan;100504.16;4992058;28;20446;-44
2023/04/23 00:56:32;;;;;;;128.05;75.30;;;;;;;7.32;nan;100543.13;4976368;28;20057;-43
2023/04/23 00:58:57;;;;;;;129.27;74.60;;;;;;;7.42;nan;100540.25;4995981;28;20042;-41
2023/04/23 01:01:23;;;;;;;137.18;75.85;;;;;;;7.07;nan;100479.16;4978393;28;20445;-40
2023/04/23 01:03:51;;;;;;;127.38;73.03;;;;;;;7.08;nan;100469.53;4995745;28;20038;-39
2023/04/23 01:06:16;;;;;;;134.52;75.45;;;;;;;7.05;nan;100456.53;4994714;28;20038;-45
2023/04/23 01:08:42;;;;;;;131.35;74.70;;;;;;;7.48;nan;100520.03;4995822;28;20382;-41
2023/04/23 01:11:08;;;;;;;133.23;75.47;;;;;;;7.55;nan;100534.69;4995737;28;20114;-40
2023/04/23 01:13:34;;;;;;;128.00;75.22;;;;;;;7.18;nan;100464.03;4976436;28;20094;-39
2023/04/23 01:16:00;;;;;;;128.32;73.90;;;;;;;7.56;nan;100536.41;4995026;28;20506;-39
2023/04/23 01:18:26;;;;;;;121.97;73.30;;;;;;;7.47;nan;100499.13;4971858;28;20416;-41
2023/04/23 01:20:52;;;;;;;128.25;75.97;;;;;;;7.12;nan;100448.47;4970845;28;20034;-42
2023/04/23 01:23:17;;;;;;;125.88;73.55;;;;;;;7.55;nan;100520.75;4993974;28;20042;-40
2023/04/23 01:25:43;;;;;;;126.50;74.80;;;;;;;7.45;nan;100507.00;4978042;28;20137;-40
2023/04/23 01:28:08;;;;;;;128.88;73.60;;;;;;;7.44;nan;100504.44;4995179;28;20077;-43
2023/04/23 01:30:34;;;;;;;130.73;74.97;;;;;;;7.25;nan;100467.38;4978427;28;20109;-43
2023/04/23 01:33:00;;;;;;;125.25;73.30;;;;;;;7.61;nan;100525.81;4988485;28;20329;-44
2023/04/23 01:35:26;;;;;;;129.25;74.18;;;;;;;7.67;nan;100516.06;5010300;28;20037;-42
2023/04/23 01:37:52;;;;;;;122.28;72.88;;;;;;;7.59;nan;100490.97;4995112;28;20045;-42
2023/04/23 01:40:19;;;;;;;122.45;70.97;;;;;;;7.75;nan;100505.38;4994581;28;20527;-43
2023/04/23 01:42:44;;;;;;;119.28;71.50;;;;;;;7.76;nan;100501.88;4992902;28;20053;-45
2023/04/23 01:45:09;;;;;;;125.93;72.88;;;;;;;7.79;nan;100504.41;4995308;28;20030;-44
2023/04/23 01:47:35;;;;;;;122.63;71.40;;;;;;;7.43;nan;100439.88;4995223;28;20105;-42
2023/04/23 01:50:00;;;;;;;114.35;70.72;;;;;;;7.73;nan;100494.09;5009214;28;20050;-45
2023/04/23 01:52:26;;;;;;;118.43;72.80;;;;;;;7.53;nan;100475.41;4993869;28;20034;-40
2023/04/23 01:54:51;;;;;;;117.45;70.75;;;;;;;7.81;nan;100513.94;4994087;28;20136;-42
2023/04/23 01:57:23;;;;;;;116.13;70.05;;;;;;;7.46;nan;100447.63;4992815;28;20104;-44
2023/04/23 01:59:49;;;;;;;115.55;70.72;;;;;;;7.83;nan;100504.28;5006429;28;20042;-42
2023/04/23 02:02:15;;;;;;;113.03;69.57;;;;;;;7.81;nan;100500.84;4993601;28;20035;-45
2023/04/23 02:04:43;;;;;;;112.97;68.22;;;;;;;7.72;nan;100492.34;4993730;28;20037;-39
2023/04/23 02:07:08;;;;;;;116.25;66.90;;;;;;;6.93;nan;100350.41;4993583;28;20109;-42
2023/04/23 02:09:34;;;;;;;106.90;67.72;;;;;;;7.87;nan;100498.06;4994057;28;20121;-41
2023/04/23 02:12:00;;;;;;;104.85;64.03;;;;;;;7.56;nan;100444.72;4992350;28;20035;-42
2023/04/23 02:14:26;;;;;;;108.35;66.65;;;;;;;7.51;nan;100433.53;4995052;28;20049;-43
2023/04/23 02:16:51;;;;;;;103.85;64.75;;;;;;;7.60;nan;100442.91;4987566;28;20030;-43
2023/04/23 02:19:17;;;;;;;111.07;65.03;;;;;;;7.93;nan;100495.28;5009230;28;20038;-43
2023/04/23 02:21:42;;;;;;;99.68;61.83;;;;;;;7.58;nan;100423.75;4994186;28;20043;-42
2023/04/23 02:24:07;;;;;;;98.53;62.88;;;;;;;7.97;nan;100482.91;4994468;28;20077;-40
2023/04/23 02:26:33;;;;;;;87.15;57.53;;;;;;;8.00;nan;100484.63;4994071;28;20042;-42
2023/04/23 02:28:58;;;;;;;88.63;58.38;;;;;;;8.00;nan;100489.88;4976885;28;20405;-41
2023/04/23 02:31:24;;;;;;;89.97;58.75;;;;;;;7.63;nan;100429.72;4991332;28;20088;-40
2023/04/23 02:33:50;;;;;;;89.22;59.63;;;;;;;7.86;nan;100475.38;4993238;28;20054;-44
2023/04/23 02:36:16;;;;;;;88.18;56.47;;;;;;;7.89;nan;100472.66;4976954;28;20050;-43
2023/04/23 02:38:43;;;;;;;83.50;56.25;;;;;;;7.97;nan;100489.94;4994182;28;20478;-43
2023/04/23 02:41:09;;;;;;;82.13;56.08;;;;;;;7.87;nan;100469.22;4993907;28;20501;-43
2023/04/23 02:43:34;;;;;;;85.30;54.72;;;;;;;7.92;nan;100488.31;4993767;28;20038;-42
2023/04/23 02:46:06;;;;;;;74.95;51.05;;;;;;;7.94;nan;100490.88;4993924;28;20035;-43
2023/04/23 02:48:33;;;;;;;75.32;50.10;;;;;;;7.83;nan;100482.44;4993938;28;20038;-41
2023/04/23 02:50:58;;;;;;;73.70;50.63;;;;;;;7.84;nan;100489.41;4982395;28;20459;-43
2023/04/23 02:53:24;;;;;;;67.20;47.60;;;;;;;7.52;nan;100421.28;4976747;28;20074;-39
2023/04/23 02:55:49;;;;;;;65.22;47.25;;;;;;;7.75;nan;100461.69;4993765;28;20038;-43
2023/04/23 02:58:14;;;;;;;63.90;46.25;;;;;;;7.56;nan;100429.00;4992677;28;20453;-42
2023/04/23 03:00:40;;;;;;;62.05;46.83;;;;;;;7.51;nan;100424.81;4992028;28;20042;-43
2023/04/23 03:03:05;;;;;;;59.30;45.00;;;;;;;7.35;nan;100406.03;4974186;28;20038;-43
2023/04/23 03:05:30;;;;;;;61.25;46.08;;;;;;;7.40;nan;100409.38;4992129;28;20054;-43
2023/04/23 03:07:56;;;;;;;61.72;46.65;;;;;;;7.35;nan;100411.28;4982646;28;20031;-41
2023/04/23 03:10:21;;;;;;;61.95;44.05;;;;;;;7.70;nan;100474.06;4991822;28;20122;-39
2023/04/23 03:12:47;;;;;;;60.38;43.88;;;;;;;7.29;nan;100414.91;4992251;28;20501;-44
2023/04/23 03:15:12;;;;;;;59.90;44.20;;;;;;;7.44;nan;100426.75;4993292;28;20505;-41
2023/04/23 03:17:37;;;;;;;62.22;44.35;;;;;;;7.75;nan;100477.41;4991780;28;20042;-41
2023/04/23 03:20:03;;;;;;;54.90;43.40;;;;;;;7.70;nan;100458.34;4974295;28;20061;-44
2023/04/23 03:22:28;;;;;;;58.60;42.58;;;;;;;7.80;nan;100477.28;4949290;28;20031;-44
2023/04/23 03:24:54;;;;;;;57.75;42.25;;;;;;;7.85;nan;100462.31;4990416;28;20039;-42
2023/04/23 03:27:19;;;;;;;56.15;42.10;;;;;;;7.54;nan;100399.41;4992903;28;20061;-42
2023/04/23 03:29:45;;;;;;;55.50;42.45;;;;;;;7.93;nan;100455.09;4989116;28;20074;-40
2023/04/23 03:32:10;;;;;;;59.38;42.42;;;;;;;7.84;nan;100445.72;4991954;28;20117;-42
2023/04/23 03:34:35;;;;;;;54.03;42.45;;;;;;;7.89;nan;100456.06;4991877;28;20074;-43
2023/04/23 03:37:01;;;;;;;56.38;43.17;;;;;;;7.94;nan;100457.66;4983593;28;20093;-41
2023/04/23 03:39:26;;;;;;;58.70;43.70;;;;;;;8.07;nan;100465.19;4987719;28;20045;-41
2023/04/23 03:41:51;;;;;;;53.13;42.28;;;;;;;8.11;nan;100469.47;4992287;28;20042;-41
2023/04/23 03:44:17;;;;;;;57.15;42.50;;;;;;;7.77;nan;100404.00;4991241;28;20046;-40
2023/04/23 03:46:42;;;;;;;57.42;44.45;;;;;;;8.17;nan;100453.56;4990847;28;20034;-40
2023/04/23 03:49:07;;;;;;;54.97;42.78;;;;;;;8.21;nan;100457.78;4991379;28;20042;-43
2023/04/23 03:51:32;;;;;;;52.60;41.70;;;;;;;8.19;nan;100457.84;4990598;28;20445;-44
2023/04/23 03:53:58;;;;;;;53.92;40.88;;;;;;;8.19;nan;100449.97;4992286;28;20489;-40
2023/04/23 03:56:23;;;;;;;53.53;41.90;;;;;;;8.30;nan;100460.19;4992198;28;20101;-43
2023/04/23 03:58:48;;;;;;;52.90;40.83;;;;;;;7.91;nan;100384.38;4991565;28;20401;-44
2023/04/23 04:01:14;;;;;;;57.05;42.47;;;;;;;7.91;nan;100386.13;4988233;28;20034;-46
2023/04/23 04:03:39;;;;;;;51.75;41.08;;;;;;;8.36;nan;100457.38;4989342;28;20097;-45
2023/04/23 04:06:05;;;;;;;52.40;40.15;;;;;;;8.02;nan;100391.94;4992492;28;20038;-41
2023/04/23 04:08:30;;;;;;;55.63;41.00;;;;;;;8.38;nan;100466.06;4991973;28;20089;-40
2023/04/23 04:10:55;;;;;;;51.33;40.75;;;;;;;8.38;nan;100459.06;4989018;28;20040;-40
2023/04/23 04:13:21;;;;;;;52.53;41.92;;;;;;;8.41;nan;100455.47;4984776;28;20031;-44
2023/04/23 04:15:46;;;;;;;47.92;39.17;;;;;;;8.08;nan;100404.88;4992447;28;20100;-44
2023/04/23 04:18:11;;;;;;;49.15;38.50;;;;;;;8.26;nan;100430.53;4990809;28;20042;-44
2023/04/23 04:20:37;;;;;;;51.90;40.85;;;;;;;8.22;nan;100410.56;4991312;28;20486;-41
2023/04/23 04:23:02;;;;;;;47.97;38.60;;;;;;;8.54;nan;100458.59;4990074;28;20062;-42
2023/04/23 04:25:28;;;;;;;52.10;40.30;;;;;;;8.54;nan;100463.84;4992435;28;20076;-43
2023/04/23 04:27:54;;;;;;;53.05;39.47;;;;;;;8.14;nan;100390.72;4990351;28;20490;-43
2023/04/23 04:30:20;;;;;;;49.33;39.78;;;;;;;8.19;nan;100386.19;4991233;28;20045;-44
2023/04/23 04:32:46;;;;;;;47.75;38.88;;;;;;;8.18;nan;100387.09;4994782;28;20124;-40
2023/04/23 04:35:14;;;;;;;44.15;38.40;;;;;;;8.59;nan;100454.06;4996027;28;20467;-42
2023/04/23 04:37:40;;;;;;;44.28;36.25;;;;;;;8.60;nan;100438.28;4996373;28;20065;-42
2023/04/23 04:40:06;;;;;;;43.25;37.15;;;;;;;8.26;nan;100374.63;4994685;28;20039;-45
2023/04/23 04:42:32;;;;;;;44.03;34.58;;;;;;;8.72;nan;100451.03;4978865;28;20042;-43
2023/04/23 04:44:58;;;;;;;42.90;35.38;;;;;;;8.71;nan;100458.94;4977800;28;20482;-42
2023/04/23 04:47:24;;;;;;;43.97;36.47;;;;;;;8.21;nan;100366.88;4995906;28;20030;-42
2023/04/23 04:49:49;;;;;;;44.45;35.88;;;;;;;8.22;nan;100389.59;4977016;28;20052;-43
2023/04/23 04:52:15;;;;;;;40.38;34.47;;;;;;;8.48;nan;100457.88;4994010;28;20034;-45
2023/04/23 04:54:41;;;;;;;44.42;37.22;;;;;;;8.36;nan;100432.03;4994618;28;20042;-45
2023/04/23 04:57:07;;;;;;;43.83;36.75;;;;;;;8.23;nan;100419.28;4994252;28;20401;-44
2023/04/23 04:59:32;;;;;;;47.95;35.72;;;;;;;7.96;nan;100384.25;4995162;28;20390;-43
2023/04/23 05:01:58;;;;;;;44.42;36.35;;;;;;;8.32;nan;100455.75;4995308;28;20057;-44
2023/04/23 05:04:23;;;;;;;48.42;37.65;;;;;;;8.26;nan;100464.63;4992411;28;20099;-44
2023/04/23 05:06:49;;;;;;;45.10;36.28;;;;;;;8.31;nan;100462.78;4977800;28;20096;-44
2023/04/23 05:09:14;;;;;;;48.65;37.83;;;;;;;8.06;nan;100401.41;4995328;28;20042;-43
2023/04/23 05:11:40;;;;;;;49.45;37.63;;;;;;;8.55;nan;100466.44;4995935;28;20034;-43
2023/04/23 05:14:05;;;;;;;45.72;37.08;;;;;;;8.29;nan;100393.75;4994945;28;20406;-46
2023/04/23 05:16:30;;;;;;;44.35;37.85;;;;;;;8.77;nan;100464.00;4990782;28;20406;-41
2023/04/23 05:18:56;;;;;;;43.67;34.65;;;;;;;8.55;nan;100416.59;4994602;28;20038;-41
2023/04/23 05:21:21;;;;;;;43.63;34.60;;;;;;;8.75;nan;100460.59;4993161;28;20125;-43
2023/04/23 05:23:47;;;;;;;39.63;33.00;;;;;;;8.68;nan;100453.78;4993268;28;20038;-41
2023/04/23 05:26:12;;;;;;;41.22;34.97;;;;;;;8.63;nan;100451.31;4995695;28;20038;-41
2023/04/23 05:28:38;;;;;;;41.63;33.20;;;;;;;8.57;nan;100459.38;4994238;28;20035;-43
2023/04/23 05:31:03;;;;;;;37.97;32.50;;;;;;;8.53;nan;100457.75;4994566;28;20382;-40
2023/04/23 05:33:29;;;;;;;42.10;34.70;;;;;;;8.51;nan;100463.94;4993630;28;20139;-39
2023/04/23 05:35:54;;;;;;;41.13;34.38;;;;;;;8.52;nan;100466.53;4992779;28;20058;-41
2023/04/23 05:38:20;;;;;;;41.85;34.67;;;;;;;8.53;nan;100456.88;4993206;28;20053;-45
2023/04/23 05:40:45;;;;;;;41.60;34.25;;;;;;;8.18;nan;100390.56;4995219;28;20093;-44
2023/04/23 05:43:11;;;;;;;41.00;34.13;;;;;;;8.44;nan;100427.41;4993233;28;20449;-43
2023/04/23 05:45:36;;;;;;;39.83;33.80;;;;;;;8.74;nan;100462.34;4994360;28;20137;-44
2023/04/23 05:48:02;;;;;;;39.15;34.28;;;;;;;8.83;nan;100451.56;4994051;28;20474;-41
2023/04/23 05:50:27;;;;;;;42.28;34.92;;;;;;;8.82;nan;100436.72;4992027;28;20108;-42
2023/04/23 05:52:53;;;;;;;38.55;32.55;;;;;;;9.00;nan;100441.38;4973801;28;20378;-44
2023/04/23 05:55:19;;;;;;;41.08;34.08;;;;;;;9.13;nan;100451.50;4994880;28;20405;-41
2023/04/23 05:57:45;;;;;;;43.63;35.83;;;;;;;9.19;nan;100441.66;4976691;28;20057;-41
2023/04/23 06:00:11;;;;;;;40.13;34.20;;;;;;;9.24;nan;100436.25;4993324;28;20490;-45
2023/04/23 06:02:37;;;;;;;41.13;33.97;;;;;;;9.42;nan;100449.63;4976518;28;20042;-40
2023/04/23 06:05:03;;;;;;;38.58;32.83;;;;;;;9.50;nan;100446.72;4976798;28;20042;-44
2023/04/23 06:07:29;;;;;;;37.58;33.40;;;;;;;9.58;nan;100428.91;4993432;28;20042;-43
2023/04/23 06:09:54;;;;;;;36.00;31.38;;;;;;;9.42;nan;100381.31;4992176;28;20493;-41
2023/04/23 06:12:20;;;;;;;30.95;26.85;;;;;;;9.76;nan;100414.28;4993897;28;20042;-40
2023/04/23 06:14:45;;;;;;;30.10;25.92;;;;;;;10.06;nan;100439.47;4993025;28;20042;-41
2023/04/23 06:17:10;;;;;;;27.48;24.38;;;;;;;10.20;nan;100433.72;4986040;28;20046;-41
2023/04/23 06:19:36;;;;;;;25.48;22.08;;;;;;;10.30;nan;100428.09;4989682;28;20031;-39
2023/04/23 06:22:01;;;;;;;26.58;22.00;;;;;;;10.53;nan;100433.34;4992715;28;20041;-41
2023/04/23 06:24:26;;;;;;;23.25;20.48;;;;;;;10.63;nan;100432.03;4992838;28;20032;-43
2023/04/23 06:26:52;;;;;;;22.50;19.70;;;;;;;10.75;nan;100422.81;4974925;28;20049;-44
2023/04/23 06:29:17;;;;;;;21.45;19.25;;;;;;;10.48;nan;100369.47;4992719;28;20049;-44
2023/04/23 06:31:42;;;;;;;24.98;18.23;;;;;;;10.99;nan;100421.81;4993209;28;20034;-41
2023/04/23 06:34:08;;;;;;;20.80;18.48;;;;;;;11.13;nan;100429.16;4993088;28;20045;-45
2023/04/23 06:36:33;;;;;;;19.23;17.25;;;;;;;11.29;nan;100428.44;4992878;28;20042;-42
2023/04/23 06:38:59;;;;;;;18.60;15.77;;;;;;;11.39;nan;100434.19;4992715;28;20104;-41
2023/04/23 06:41:24;;;;;;;17.45;15.52;;;;;;;11.52;nan;100430.13;4991214;28;20042;-43
2023/04/23 06:43:50;;;;;;;17.40;15.00;;;;;;;11.65;nan;100435.72;4989783;28;20038;-44
2023/04/23 06:46:15;;;;;;;18.02;14.98;;;;;;;11.83;nan;100441.09;4992972;28;20363;-44
2023/04/23 06:48:40;;;;;;;16.30;13.90;;;;;;;12.07;nan;100428.63;4992919;28;20401;-42
2023/04/23 06:51:06;;;;;;;15.82;13.55;;;;;;;12.20;nan;100431.56;4992845;28;20053;-41
2023/04/23 06:53:31;;;;;;;15.77;12.88;;;;;;;12.32;nan;100442.41;4991220;28;20053;-41
2023/04/23 06:55:57;;;;;;;16.92;14.02;;;;;;;12.18;nan;100388.53;4992356;28;20085;-44
2023/04/23 06:58:26;;;;;;;16.25;13.13;;;;;;;12.65;nan;100437.34;4990953;28;20043;-42
2023/04/23 07:00:52;;;;;;;19.25;13.50;;;;;;;12.52;nan;100379.91;4974384;28;20505;-44
2023/04/23 07:03:17;;;;;;;13.57;12.18;;;;;;;13.07;nan;100429.16;4974278;28;20030;-41
2023/04/23 07:05:43;;;;;;;13.32;12.05;;;;;;;13.32;nan;100442.88;4992660;28;20060;-41
2023/04/23 07:08:08;;;;;;;13.25;11.63;;;;;;;13.16;nan;100381.16;4992228;28;20038;-42
2023/04/23 07:10:33;;;;;;;14.45;11.43;;;;;;;13.70;nan;100403.91;4990702;28;20406;-42
2023/04/23 07:12:59;;;;;;;13.70;10.93;;;;;;;14.14;nan;100438.63;4992793;28;20511;-44
2023/04/23 07:15:24;;;;;;;11.63;10.30;;;;;;;14.32;nan;100423.56;4971739;28;20047;-42
2023/04/23 07:17:50;;;;;;;15.07;11.80;;;;;;;14.84;nan;100453.34;4992210;28;20054;-42
2023/04/23 07:20:15;;;;;;;11.13;9.95;;;;;;;15.17;nan;100438.19;4993543;28;20405;-46
2023/04/23 07:22:41;;;;;;;13.05;10.35;;;;;;;15.80;nan;100445.97;4992123;28;20041;-43
2023/04/23 07:25:07;;;;;;;11.32;8.77;;;;;;;16.17;nan;100401.16;4990194;28;20045;-45
2023/04/23 07:27:33;;;;;;;13.93;10.57;;;;;;;16.58;nan;100400.41;4993252;28;20030;-47
2023/04/23 07:30:00;;;;;;;12.88;10.18;;;;;;;17.36;nan;100456.38;4993179;28;20378;-44
2023/04/23 07:32:26;;;;;;;11.38;8.63;;;;;;;17.60;nan;100458.41;4990269;28;20088;-43
2023/04/23 07:34:53;;;;;;;9.05;7.50;;;;;;;17.22;nan;100437.78;4974906;28;20153;-42
2023/04/23 07:37:20;;;;;;;11.73;9.50;;;;;;;17.29;nan;100475.50;4974925;28;20088;-42
2023/04/23 07:39:45;;;;;;;10.43;8.73;;;;;;;17.07;nan;100461.91;4993434;28;20113;-43
2023/04/23 07:42:12;;;;;;;12.05;8.20;;;;;;;17.26;nan;100487.19;4975041;28;20122;-45
2023/04/23 07:44:37;;;;;;;9.07;8.13;;;;;;;17.55;nan;100441.84;4989026;28;20041;-44
2023/04/23 07:47:02;;;;;;;9.70;7.53;;;;;;;17.45;nan;100474.38;4993728;28;20390;-47
2023/04/23 07:49:28;;;;;;;11.73;8.20;;;;;;;17.35;nan;100475.09;4990099;28;20034;-43
2023/04/23 07:51:53;;;;;;;9.93;7.22;;;;;;;17.05;nan;100472.63;4988097;28;20088;-45
2023/04/23 07:54:19;;;;;;;10.38;8.18;;;;;;;16.95;nan;100422.81;4993070;28;20401;-49
2023/04/23 07:56:44;;;;;;;11.02;7.82;;;;;;;17.07;nan;100449.47;4993018;28;20049;-51
2023/04/23 07:59:10;;;;;;;12.63;7.05;;;;;;;17.47;nan;100468.97;4992000;28;20548;-47
2023/04/23 08:01:35;;;;;;;10.50;7.40;;;;;;;17.63;nan;100469.66;4991409;28;20046;-47
2023/04/23 08:04:01;;;;;;;14.05;7.18;;;;;;;17.99;nan;100469.84;4992258;28;20165;-45
2023/04/23 08:06:29;;;;;;;8.93;6.07;;;;;;;18.37;nan;100448.53;4975401;28;20482;-47
2023/04/23 08:08:54;;;;;;;7.45;5.72;;;;;;;18.69;nan;100446.25;4989222;28;20049;-52
2023/04/23 08:11:20;;;;;;;9.27;6.38;;;;;;;18.57;nan;100414.28;4991364;28;20458;-51
2023/04/23 08:13:46;;;;;;;9.00;5.82;;;;;;;18.88;nan;100449.31;4992109;28;20378;-43
2023/04/23 08:16:11;;;;;;;9.13;6.00;;;;;;;19.69;nan;100446.81;4974900;28;20042;-47
2023/04/23 08:18:36;;;;;;;8.88;5.90;;;;;;;20.40;nan;100462.59;4974207;28;20050;-50
2023/04/23 08:21:02;;;;;;;11.52;5.82;;;;;;;19.84;nan;100410.91;4992514;28;20034;-46
2023/04/23 08:23:27;;;;;;;9.35;5.93;;;;;;;20.25;nan;100397.03;4992515;28;20035;-46
2023/04/23 08:25:52;;;;;;;6.95;5.30;;;;;;;20.11;nan;100400.72;4989433;28;20263;-46
2023/04/23 08:28:18;;;;;;;11.50;6.35;;;;;;;20.63;nan;100447.44;4974428;28;20030;-48
2023/04/23 08:30:43;;;;;;;9.43;6.05;;;;;;;20.17;nan;100413.59;4992301;28;20034;-47
2023/04/23 08:33:09;;;;;;;9.27;5.65;;;;;;;20.77;nan;100461.41;4983170;28;20478;-46
2023/04/23 08:35:34;;;;;;;10.27;5.60;;;;;;;20.64;nan;100415.19;4992272;28;20043;-47
2023/04/23 08:38:00;;;;;;;8.95;5.43;;;;;;;21.28;nan;100467.03;4992573;28;20129;-46
2023/04/23 08:40:30;;;;;;;12.52;5.85;;;;;;;21.24;nan;100446.00;4989295;28;20114;-46
2023/04/23 08:43:05;;;;;;;11.10;5.25;;;;;;;20.84;nan;100437.66;4992499;28;20034;-51
2023/04/23 08:45:32;;;;;;;7.88;5.47;;;;;;;20.82;nan;100439.63;4991340;28;20041;-47
2023/04/23 08:47:58;;;;;;;9.00;4.80;;;;;;;21.55;nan;100458.53;4992581;28;20039;-45
2023/04/23 08:50:24;;;;;;;6.43;5.25;;;;;;;21.77;nan;100477.16;4992581;28;20034;-46
2023/04/23 08:52:52;;;;;;;11.10;5.47;;;;;;;21.22;nan;100458.63;4990508;28;20034;-48
2023/04/23 08:55:18;;;;;;;8.75;5.38;;;;;;;21.30;nan;100473.13;4971781;28;20023;-47
2023/04/23 08:57:45;;;;;;;6.65;4.70;;;;;;;21.28;nan;100474.19;4971432;28;20127;-46
2023/04/23 09:00:12;;;;;;;7.20;4.50;;;;;;;21.36;nan;100455.69;4973130;28;20047;-51
2023/04/23 09:02:41;;;;;;;10.52;5.22;;;;;;;21.12;nan;100422.91;4973099;28;20030;-47
2023/04/23 09:05:07;;;;;;;10.38;4.70;;;;;;;22.06;nan;100415.78;4972849;28;20386;-47
2023/04/23 09:07:34;;;;;;;8.27;4.57;;;;;;;22.27;nan;100408.50;4974792;28;20034;-53
2023/04/23 09:10:01;;;;;;;5.57;3.70;;;;;;;23.03;nan;100470.69;4958290;28;20035;-46
2023/04/23 09:12:26;;;;;;;11.15;5.10;;;;;;;22.17;nan;100468.44;4971813;28;20026;-51
2023/04/23 09:14:51;;;;;;;10.80;5.38;;;;;;;21.55;nan;100469.22;4939664;28;20541;-47
2023/04/23 09:17:17;;;;;;;11.27;5.60;;;;;;;21.02;nan;100425.47;4974460;28;20039;-46
2023/04/23 09:19:44;;;;;;;9.27;4.50;;;;;;;20.19;nan;100398.31;4992410;28;20121;-47
2023/04/23 09:22:09;;;;;;;8.52;4.88;;;;;;;19.60;nan;100384.28;4996338;28;20034;-48
2023/04/23 09:24:35;;;;;;;11.48;5.25;;;;;;;19.88;nan;100441.75;4995792;28;20478;-46
2023/04/23 09:27:01;;;;;;;8.38;4.03;;;;;;;19.65;nan;100367.88;4995745;28;20042;-46
2023/04/23 09:29:27;;;;;;;9.05;4.47;;;;;;;20.18;nan;100387.75;4995778;28;20113;-47
2023/04/23 09:32:06;;;;;;;7.35;4.20;;;;;;;20.86;nan;100387.56;4994516;28;20069;-49
2023/04/23 09:34:35;;;;;;;8.68;4.07;;;;;;;21.57;nan;100400.31;4973155;28;20055;-48
2023/04/23 09:37:02;;;;;;;5.88;4.03;;;;;;;22.25;nan;100439.13;4975842;28;20042;-47
2023/04/23 09:39:27;;;;;;;6.80;3.17;;;;;;;22.09;nan;100428.91;4976229;28;20125;-47
2023/04/23 09:41:53;;;;;;;8.38;3.72;;;;;;;22.19;nan;100420.91;4958927;28;20419;-54
2023/04/23 09:44:25;;;;;;;9.77;3.30;;;;;;;22.46;nan;100374.72;4974898;28;20047;-50
2023/04/23 09:46:50;;;;;;;6.20;3.15;;;;;;;22.59;nan;100434.34;4975856;28;20031;-52
2023/04/23 09:49:15;;;;;;;8.50;2.80;;;;;;;22.82;nan;100434.03;4952551;28;20042;-45
2023/04/23 09:51:44;;;;;;;6.90;3.03;;;;;;;22.77;nan;100430.03;4975315;28;20031;-49
2023/04/23 09:54:13;;;;;;;6.82;3.25;;;;;;;22.77;nan;100400.53;4958025;28;20050;-48
2023/04/23 09:56:41;;;;;;;7.65;3.03;;;;;;;21.79;nan;100380.59;4966375;28;20067;-49
2023/04/23 09:59:25;;;;;;;8.98;3.50;;;;;;;21.22;nan;100372.97;4971614;28;20474;-49
2023/04/23 10:01:51;;;;;;;9.43;3.53;;;;;;;20.69;nan;100430.91;4975032;28;20399;-52
2023/04/23 10:04:19;;;;;;;10.48;3.97;;;;;;;19.81;nan;100364.88;4957739;28;20549;-47
2023/04/23 10:06:44;;;;;;;8.02;3.65;;;;;;;19.57;nan;100421.03;4942165;28;20070;-48
2023/04/23 10:09:10;;;;;;;6.47;3.05;;;;;;;19.69;nan;100412.09;4975122;28;20054;-50
2023/04/23 10:11:36;;;;;;;6.72;2.95;;;;;;;19.56;nan;100414.84;4975402;28;20042;-46
2023/04/23 10:14:01;;;;;;;7.97;3.40;;;;;;;19.39;nan;100369.03;4973918;28;20058;-46
2023/04/23 10:16:27;;;;;;;8.90;3.53;;;;;;;19.32;nan;100405.16;4974979;28;20042;-46
2023/04/23 10:18:54;;;;;;;7.50;2.92;;;;;;;19.14;nan;100362.03;4975169;28;20047;-49
2023/04/23 10:21:19;;;;;;;8.77;2.90;;;;;;;19.86;nan;100408.97;4975094;28;20496;-51
2023/04/23 10:23:47;;;;;;;8.73;3.58;;;;;;;20.03;nan;100403.16;4957797;28;20031;-45
2023/04/23 10:26:13;;;;;;;9.90;3.72;;;;;;;20.01;nan;100332.97;4972060;28;20042;-48
2023/04/23 10:28:39;;;;;;;7.95;2.85;;;;;;;19.72;nan;100346.91;4974680;28;20122;-50
2023/04/23 10:31:05;;;;;;;7.90;3.53;;;;;;;19.86;nan;100384.94;4970213;28;20192;-45
2023/04/23 10:33:31;;;;;;;7.72;3.60;;;;;;;19.74;nan;100393.88;4972302;28;20133;-49
2023/04/23 10:35:56;;;;;;;8.18;3.53;;;;;;;19.37;nan;100350.44;4990635;28;20458;-51
2023/04/23 10:38:22;;;;;;;6.18;3.00;;;;;;;19.42;nan;100390.16;4993604;28;20037;-47
2023/04/23 10:40:50;;;;;;;7.93;3.30;;;;;;;19.02;nan;100333.59;4983564;28;20038;-49
2023/04/23 10:43:16;;;;;;;10.25;3.28;;;;;;;19.18;nan;100383.97;4991017;28;20042;-47
2023/04/23 10:45:42;;;;;;;8.68;3.53;;;;;;;18.62;nan;100321.53;4993762;28;20103;-47
2023/04/23 10:48:07;;;;;;;5.00;2.90;;;;;;;19.21;nan;100371.25;4993499;28;20506;-46
2023/04/23 10:50:36;;;;;;;8.88;2.33;;;;;;;18.83;nan;100280.78;4994286;28;20039;-46
2023/04/23 10:53:02;;;;;;;6.35;2.83;;;;;;;19.46;nan;100357.78;4992769;28;20030;-48
2023/04/23 10:55:31;;;;;;;5.65;3.15;;;;;;;19.93;nan;100355.94;4992117;28;20481;-46
2023/04/23 10:58:04;;;;;;;9.85;2.85;;;;;;;20.40;nan;100301.38;4993048;28;20392;-49
2023/04/23 11:00:44;;;;;;;5.75;2.53;;;;;;;20.31;nan;100292.28;4993669;28;20393;-46
2023/04/23 11:03:29;;;;;;;6.10;2.33;;;;;;;20.79;nan;100356.94;4993851;28;20038;-47
2023/04/23 11:05:54;;;;;;;5.10;2.67;;;;;;;20.51;nan;100304.88;4994047;28;20140;-45
2023/04/23 11:08:20;;;;;;;5.07;2.25;;;;;;;20.58;nan;100345.31;4992381;28;20034;-47
2023/04/23 11:10:56;;;;;;;10.32;2.72;;;;;;;19.84;nan;100280.03;4993444;28;20137;-47
2023/04/23 11:13:23;;;;;;;6.85;2.55;;;;;;;19.78;nan;100325.06;4992379;28;20164;-48
2023/04/23 11:16:11;;;;;;;4.38;2.40;;;;;;;19.61;nan;100339.75;4993385;28;20038;-48
2023/04/23 11:18:54;;;;;;;7.60;2.70;;;;;;;19.25;nan;100339.84;4993277;28;20042;-46
2023/04/23 11:21:19;;;;;;;10.32;2.83;;;;;;;18.61;nan;100264.69;4993303;28;20092;-46
2023/04/23 11:23:45;;;;;;;5.35;2.20;;;;;;;18.89;nan;100320.31;4993557;28;20038;-46
2023/04/23 11:26:10;;;;;;;6.10;2.47;;;;;;;18.42;nan;100261.63;4993470;28;20035;-46
2023/04/23 11:28:37;;;;;;;7.45;2.42;;;;;;;18.64;nan;100316.94;4992155;28;20512;-48